sensor_id;sensor_type;location;lat;lon;timestamp;pressure;altitude;pressure_sealevel;temperature;humidity
22653;BME280;11493;43.344;26.226;2024-03-08T00:01:13;99595.25;;;5.46;100.00
22653;BME280;11493;43.344;26.226;2024-03-08T00:03:43;99589.50;;;5.48;100.00
22653;BME280;11493;43.344;26.226;2024-03-08T00:06:11;99554.31;;;5.36;100.00
22653;BME280;11493;43.344;26.226;2024-03-08T00:08:40;99576.94;;;5.57;100.00
22653;BME280;11493;43.344;26.226;2024-03-08T00:11:09;99573.13;;;5.48;100.00
22653;BME280;11493;43.344;26.226;2024-03-08T00:13:38;99572.59;;;5.41;100.00
22653;BME280;11493;43.344;26.226;2024-03-08T00:16:06;99570.69;;;5.46;100.00
22653;BME280;11493;43.344;26.226;2024-03-08T00:18:36;99570.41;;;5.53;100.00
22653;BME280;11493;43.344;26.226;2024-03-08T00:21:04;99571.22;;;5.53;100.00
22653;BME280;11493;43.344;26.226;2024-03-08T00:23:32;99570.38;;;5.63;100.00
22653;BME280;11493;43.344;26.226;2024-03-08T00:26:01;99568.75;;;5.67;100.00
22653;BME280;11493;43.344;26.226;2024-03-08T00:28:32;99566.56;;;5.59;100.00
22653;BME280;11493;43.344;26.226;2024-03-08T00:31:01;99577.50;;;5.54;100.00
22653;BME280;11493;43.344;26.226;2024-03-08T00:33:29;99569.84;;;5.56;100.00
22653;BME280;11493;43.344;26.226;2024-03-08T00:35:58;99562.75;;;5.55;100.00
22653;BME280;11493;43.344;26.226;2024-03-08T00:38:26;99570.69;;;5.51;100.00
22653;BME280;11493;43.344;26.226;2024-03-08T00:40:54;99570.41;;;5.58;100.00
22653;BME280;11493;43.344;26.226;2024-03-08T00:43:23;99580.75;;;5.66;100.00
22653;BME280;11493;43.344;26.226;2024-03-08T00:45:54;99573.38;;;5.72;100.00
22653;BME280;11493;43.344;26.226;2024-03-08T00:48:22;99579.38;;;5.69;100.00
22653;BME280;11493;43.344;26.226;2024-03-08T00:50:51;99574.19;;;5.72;100.00
22653;BME280;11493;43.344;26.226;2024-03-08T00:53:19;99577.47;;;5.69;100.00
22653;BME280;11493;43.344;26.226;2024-03-08T00:55:47;99567.06;;;5.76;100.00
22653;BME280;11493;43.344;26.226;2024-03-08T00:58:16;99568.16;;;5.75;100.00
22653;BME280;11493;43.344;26.226;2024-03-08T01:00:44;99555.91;;;5.68;100.00
22653;BME280;11493;43.344;26.226;2024-03-08T01:03:13;99561.09;;;5.64;100.00
22653;BME280;11493;43.344;26.226;2024-03-08T01:05:42;99560.56;;;5.62;100.00
22653;BME280;11493;43.344;26.226;2024-03-08T01:08:10;99561.66;;;5.61;100.00
22653;BME280;11493;43.344;26.226;2024-03-08T01:10:39;99564.94;;;5.58;100.00
22653;BME280;11493;43.344;26.226;2024-03-08T01:13:07;99572.84;;;5.65;100.00
22653;BME280;11493;43.344;26.226;2024-03-08T01:15:36;99567.09;;;5.71;100.00
22653;BME280;11493;43.344;26.226;2024-03-08T01:18:08;99569.53;;;5.73;100.00
22653;BME280;11493;43.344;26.226;2024-03-08T01:20:38;99570.38;;;5.73;100.00
22653;BME280;11493;43.344;26.226;2024-03-08T01:23:06;99570.66;;;5.67;100.00
22653;BME280;11493;43.344;26.226;2024-03-08T01:25:35;99563.53;;;5.71;100.00
22653;BME280;11493;43.344;26.226;2024-03-08T01:28:04;99560.53;;;5.72;100.00
22653;BME280;11493;43.344;26.226;2024-03-08T01:30:32;99573.38;;;5.72;100.00
22653;BME280;11493;43.344;26.226;2024-03-08T01:33:01;99572.00;;;5.74;100.00
22653;BME280;11493;43.344;26.226;2024-03-08T01:35:29;99569.00;;;5.66;100.00
22653;BME280;11493;43.344;26.226;2024-03-08T01:37:59;99583.47;;;5.66;100.00
22653;BME280;11493;43.344;26.226;2024-03-08T01:40:27;99578.56;;;5.68;100.00
22653;BME280;11493;43.344;26.226;2024-03-08T01:42:56;99582.38;;;5.72;100.00
22653;BME280;11493;43.344;26.226;2024-03-08T01:45:24;99573.38;;;5.72;100.00
22653;BME280;11493;43.344;26.226;2024-03-08T01:47:52;99575.28;;;5.66;100.00
22653;BME280;11493;43.344;26.226;2024-03-08T01:50:20;99560.56;;;5.57;100.00
22653;BME280;11493;43.344;26.226;2024-03-08T01:52:49;99569.31;;;5.54;100.00
22653;BME280;11493;43.344;26.226;2024-03-08T01:55:19;99582.41;;;5.57;100.00
22653;BME280;11493;43.344;26.226;2024-03-08T01:57:48;99569.31;;;5.49;100.00
22653;BME280;11493;43.344;26.226;2024-03-08T02:00:18;99569.03;;;5.50;100.00
22653;BME280;11493;43.344;26.226;2024-03-08T02:02:47;99570.94;;;5.50;100.00
22653;BME280;11493;43.344;26.226;2024-03-08T02:05:17;99563.59;;;5.50;100.00
22653;BME280;11493;43.344;26.226;2024-03-08T02:07:45;99569.84;;;5.51;100.00
22653;BME280;11493;43.344;26.226;2024-03-08T02:10:14;99563.84;;;5.49;100.00
22653;BME280;11493;43.344;26.226;2024-03-08T02:12:44;99567.41;;;5.49;100.00
22653;BME280;11493;43.344;26.226;2024-03-08T02:15:12;99548.84;;;5.46;100.00
22653;BME280;11493;43.344;26.226;2024-03-08T02:17:42;99570.41;;;5.58;100.00
22653;BME280;11493;43.344;26.226;2024-03-08T02:20:10;99566.28;;;5.60;100.00
22653;BME280;11493;43.344;26.226;2024-03-08T02:22:42;99580.47;;;5.73;100.00
22653;BME280;11493;43.344;26.226;2024-03-08T02:25:10;99578.81;;;5.77;100.00
22653;BME280;11493;43.344;26.226;2024-03-08T02:27:39;99574.19;;;5.77;100.00
22653;BME280;11493;43.344;26.226;2024-03-08T02:30:08;99570.63;;;5.77;100.00
22653;BME280;11493;43.344;26.226;2024-03-08T02:32:37;99579.34;;;5.79;100.00
22653;BME280;11493;43.344;26.226;2024-03-08T02:35:06;99570.38;;;5.73;100.00
22653;BME280;11493;43.344;26.226;2024-03-08T02:37:34;99574.16;;;5.82;100.00
22653;BME280;11493;43.344;26.226;2024-03-08T02:40:04;99569.25;;;5.79;100.00
22653;BME280;11493;43.344;26.226;2024-03-08T02:42:34;99575.81;;;5.83;100.00
22653;BME280;11493;43.344;26.226;2024-03-08T02:45:02;99564.09;;;5.68;100.00
22653;BME280;11493;43.344;26.226;2024-03-08T02:47:32;99560.00;;;5.70;100.00
22653;BME280;11493;43.344;26.226;2024-03-08T02:50:01;99574.19;;;5.72;100.00
22653;BME280;11493;43.344;26.226;2024-03-08T02:52:30;99574.19;;;5.72;100.00
22653;BME280;11493;43.344;26.226;2024-03-08T02:54:59;99553.47;;;5.56;100.00
22653;BME280;11493;43.344;26.226;2024-03-08T02:57:30;99581.00;;;5.70;100.00
22653;BME280;11493;43.344;26.226;2024-03-08T02:59:58;99585.94;;;5.63;100.00
22653;BME280;11493;43.344;26.226;2024-03-08T03:02:27;99590.06;;;5.55;100.00
22653;BME280;11493;43.344;26.226;2024-03-08T03:04:55;99589.25;;;5.49;100.00
22653;BME280;11493;43.344;26.226;2024-03-08T03:07:23;99588.41;;;5.49;100.00
22653;BME280;11493;43.344;26.226;2024-03-08T03:09:54;99586.50;;;5.44;100.00
22653;BME280;11493;43.344;26.226;2024-03-08T03:12:23;99579.69;;;5.47;100.00
22653;BME280;11493;43.344;26.226;2024-03-08T03:14:52;99586.25;;;5.46;100.00
22653;BME280;11493;43.344;26.226;2024-03-08T03:17:20;99592.78;;;5.45;100.00
22653;BME280;11493;43.344;26.226;2024-03-08T03:19:49;99587.06;;;5.46;100.00
22653;BME280;11493;43.344;26.226;2024-03-08T03:22:17;99592.78;;;5.50;100.00
22653;BME280;11493;43.344;26.226;2024-03-08T03:24:45;99572.59;;;5.51;100.00
22653;BME280;11493;43.344;26.226;2024-03-08T03:27:14;99567.69;;;5.38;100.00
22653;BME280;11493;43.344;26.226;2024-03-08T03:29:43;99576.13;;;5.46;100.00
22653;BME280;11493;43.344;26.226;2024-03-08T03:32:15;99585.69;;;5.49;100.00
22653;BME280;11493;43.344;26.226;2024-03-08T03:34:45;99578.59;;;5.53;100.00
22653;BME280;11493;43.344;26.226;2024-03-08T03:37:13;99574.75;;;5.54;100.00
22653;BME280;11493;43.344;26.226;2024-03-08T03:39:41;99573.13;;;5.53;100.00
22653;BME280;11493;43.344;26.226;2024-03-08T03:42:16;99578.06;;;5.51;100.00
22653;BME280;11493;43.344;26.226;2024-03-08T03:44:45;99572.03;;;5.54;100.00
22653;BME280;11493;43.344;26.226;2024-03-08T03:47:16;99580.22;;;5.59;100.00
22653;BME280;11493;43.344;26.226;2024-03-08T03:49:44;99579.97;;;5.50;100.00
22653;BME280;11493;43.344;26.226;2024-03-08T03:52:12;99580.25;;;5.44;100.00
22653;BME280;11493;43.344;26.226;2024-03-08T03:54:40;99562.22;;;5.43;100.00
22653;BME280;11493;43.344;26.226;2024-03-08T03:57:09;99573.97;;;5.43;100.00
22653;BME280;11493;43.344;26.226;2024-03-08T03:59:37;99578.31;;;5.49;100.00
22653;BME280;11493;43.344;26.226;2024-03-08T04:02:06;99574.78;;;5.39;100.00
22653;BME280;11493;43.344;26.226;2024-03-08T04:04:35;99576.97;;;5.37;100.00
22653;BME280;11493;43.344;26.226;2024-03-08T04:07:03;99584.06;;;5.27;100.00
22653;BME280;11493;43.344;26.226;2024-03-08T04:09:32;99586.25;;;5.36;100.00
22653;BME280;11493;43.344;26.226;2024-03-08T04:12:03;99591.97;;;5.39;100.00
22653;BME280;11493;43.344;26.226;2024-03-08T04:14:31;99593.88;;;5.34;100.00
22653;BME280;11493;43.344;26.226;2024-03-08T04:16:59;99597.97;;;5.36;100.00
22653;BME280;11493;43.344;26.226;2024-03-08T04:19:28;99593.63;;;5.40;100.00
22653;BME280;11493;43.344;26.226;2024-03-08T04:21:57;99607.53;;;5.39;100.00
22653;BME280;11493;43.344;26.226;2024-03-08T04:24:27;99596.63;;;5.39;100.00
22653;BME280;11493;43.344;26.226;2024-03-08T04:26:57;99602.63;;;5.36;100.00
22653;BME280;11493;43.344;26.226;2024-03-08T04:29:25;99592.78;;;5.35;100.00
22653;BME280;11493;43.344;26.226;2024-03-08T04:31:54;99598.81;;;5.32;100.00
22653;BME280;11493;43.344;26.226;2024-03-08T04:34:22;99599.88;;;5.36;100.00
22653;BME280;11493;43.344;26.226;2024-03-08T04:36:51;99580.53;;;5.27;100.00
22653;BME280;11493;43.344;26.226;2024-03-08T04:39:21;99594.44;;;5.31;100.00
22653;BME280;11493;43.344;26.226;2024-03-08T04:41:50;99595.78;;;5.38;100.00
22653;BME280;11493;43.344;26.226;2024-03-08T04:44:18;99603.72;;;5.40;100.00
22653;BME280;11493;43.344;26.226;2024-03-08T04:46:46;99599.06;;;5.40;100.00
22653;BME280;11493;43.344;26.226;2024-03-08T04:49:14;99597.69;;;5.43;100.00
22653;BME280;11493;43.344;26.226;2024-03-08T04:51:43;99601.78;;;5.50;100.00
22653;BME280;11493;43.344;26.226;2024-03-08T04:54:12;99602.59;;;5.51;100.00
22653;BME280;11493;43.344;26.226;2024-03-08T04:56:42;99617.34;;;5.45;100.00
22653;BME280;11493;43.344;26.226;2024-03-08T04:59:10;99611.34;;;5.48;100.00
22653;BME280;11493;43.344;26.226;2024-03-08T05:01:38;99606.97;;;5.52;100.00
22653;BME280;11493;43.344;26.226;2024-03-08T05:04:07;99615.16;;;5.47;100.00
22653;BME280;11493;43.344;26.226;2024-03-08T05:06:36;99606.97;;;5.52;100.00
22653;BME280;11493;43.344;26.226;2024-03-08T05:09:04;99625.00;;;5.53;100.00
22653;BME280;11493;43.344;26.226;2024-03-08T05:11:42;99625.53;;;5.55;100.00
22653;BME280;11493;43.344;26.226;2024-03-08T05:14:12;99626.63;;;5.64;100.00
22653;BME280;11493;43.344;26.226;2024-03-08T05:16:43;99629.34;;;5.64;100.00
22653;BME280;11493;43.344;26.226;2024-03-08T05:19:15;99626.34;;;5.66;100.00
22653;BME280;11493;43.344;26.226;2024-03-08T05:21:44;99629.88;;;5.71;100.00
22653;BME280;11493;43.344;26.226;2024-03-08T05:24:13;99632.63;;;5.71;100.00
22653;BME280;11493;43.344;26.226;2024-03-08T05:26:43;99626.88;;;5.73;100.00
22653;BME280;11493;43.344;26.226;2024-03-08T05:29:12;99631.78;;;5.81;100.00
22653;BME280;11493;43.344;26.226;2024-03-08T05:31:46;99644.63;;;5.75;100.00
22653;BME280;11493;43.344;26.226;2024-03-08T05:34:14;99642.41;;;5.87;100.00
22653;BME280;11493;43.344;26.226;2024-03-08T05:36:43;99648.44;;;5.79;100.00
22653;BME280;11493;43.344;26.226;2024-03-08T05:39:12;99648.72;;;5.93;100.00
22653;BME280;11493;43.344;26.226;2024-03-08T05:41:42;99650.06;;;5.96;100.00
22653;BME280;11493;43.344;26.226;2024-03-08T05:44:11;99648.16;;;5.86;100.00
22653;BME280;11493;43.344;26.226;2024-03-08T05:46:40;99645.16;;;5.92;100.00
22653;BME280;11493;43.344;26.226;2024-03-08T05:49:08;99659.91;;;5.86;100.00
22653;BME280;11493;43.344;26.226;2024-03-08T05:51:38;99653.34;;;5.82;100.00
22653;BME280;11493;43.344;26.226;2024-03-08T05:54:08;99659.91;;;5.76;100.00
22653;BME280;11493;43.344;26.226;2024-03-08T05:56:38;99670.84;;;5.71;100.00
22653;BME280;11493;43.344;26.226;2024-03-08T05:59:09;99661.56;;;5.57;100.00
22653;BME280;11493;43.344;26.226;2024-03-08T06:01:37;99673.28;;;5.68;100.00
22653;BME280;11493;43.344;26.226;2024-03-08T06:04:08;99668.09;;;5.66;100.00
22653;BME280;11493;43.344;26.226;2024-03-08T06:06:38;99639.19;;;5.45;100.00
22653;BME280;11493;43.344;26.226;2024-03-08T06:09:07;99670.03;;;5.60;100.00
22653;BME280;11493;43.344;26.226;2024-03-08T06:11:39;99666.47;;;5.55;100.00
22653;BME280;11493;43.344;26.226;2024-03-08T06:14:09;99678.22;;;5.55;100.00
22653;BME280;11493;43.344;26.226;2024-03-08T06:16:37;99683.66;;;5.66;100.00
22653;BME280;11493;43.344;26.226;2024-03-08T06:19:05;99678.22;;;5.60;100.00
22653;BME280;11493;43.344;26.226;2024-03-08T06:21:34;99689.94;;;5.66;100.00
22653;BME280;11493;43.344;26.226;2024-03-08T06:24:03;99681.75;;;5.66;100.00
22653;BME280;11493;43.344;26.226;2024-03-08T06:26:31;99688.84;;;5.67;100.00
22653;BME280;11493;43.344;26.226;2024-03-08T06:29:02;99677.38;;;5.55;100.00
22653;BME280;11493;43.344;26.226;2024-03-08T06:31:35;99691.59;;;5.67;100.00
22653;BME280;11493;43.344;26.226;2024-03-08T06:34:06;99696.78;;;5.64;100.00
22653;BME280;11493;43.344;26.226;2024-03-08T06:36:35;99701.97;;;5.70;100.00
22653;BME280;11493;43.344;26.226;2024-03-08T06:39:05;99695.41;;;5.76;100.00
22653;BME280;11493;43.344;26.226;2024-03-08T06:41:37;99694.84;;;5.84;100.00
22653;BME280;11493;43.344;26.226;2024-03-08T06:44:05;99686.38;;;5.86;100.00
22653;BME280;11493;43.344;26.226;2024-03-08T06:46:36;99703.03;;;5.94;100.00
22653;BME280;11493;43.344;26.226;2024-03-08T06:49:05;99679.56;;;5.83;100.00
22653;BME280;11493;43.344;26.226;2024-03-08T06:51:34;99707.13;;;6.02;100.00
22653;BME280;11493;43.344;26.226;2024-03-08T06:54:02;99689.41;;;5.89;100.00
22653;BME280;11493;43.344;26.226;2024-03-08T06:56:35;99704.66;;;6.06;100.00
22653;BME280;11493;43.344;26.226;2024-03-08T06:59:03;99716.13;;;6.13;100.00
22653;BME280;11493;43.344;26.226;2024-03-08T07:01:32;99708.00;;;5.92;100.00
22653;BME280;11493;43.344;26.226;2024-03-08T07:04:03;99711.22;;;6.00;100.00
22653;BME280;11493;43.344;26.226;2024-03-08T07:06:32;99707.13;;;6.02;100.00
22653;BME280;11493;43.344;26.226;2024-03-08T07:09:01;99719.41;;;6.10;100.00
22653;BME280;11493;43.344;26.226;2024-03-08T07:11:29;99713.41;;;6.08;100.00
22653;BME280;11493;43.344;26.226;2024-03-08T07:13:57;99722.41;;;6.13;100.00
22653;BME280;11493;43.344;26.226;2024-03-08T07:16:25;99719.94;;;6.22;100.00
22653;BME280;11493;43.344;26.226;2024-03-08T07:18:53;99725.38;;;6.27;100.00
22653;BME280;11493;43.344;26.226;2024-03-08T07:21:23;99728.13;;;6.22;100.00
22653;BME280;11493;43.344;26.226;2024-03-08T07:23:51;99724.03;;;6.14;100.00
22653;BME280;11493;43.344;26.226;2024-03-08T07:26:40;99721.03;;;6.21;100.00
22653;BME280;11493;43.344;26.226;2024-03-08T07:29:08;99704.38;;;6.12;100.00
22653;BME280;11493;43.344;26.226;2024-03-08T07:31:36;99724.28;;;6.38;100.00
22653;BME280;11493;43.344;26.226;2024-03-08T07:34:17;99725.34;;;6.42;100.00
22653;BME280;11493;43.344;26.226;2024-03-08T07:36:46;99734.34;;;6.48;100.00
22653;BME280;11493;43.344;26.226;2024-03-08T07:39:17;99721.78;;;6.52;100.00
22653;BME280;11493;43.344;26.226;2024-03-08T07:41:46;99728.06;;;6.52;100.00
22653;BME280;11493;43.344;26.226;2024-03-08T07:44:14;99728.59;;;6.54;100.00
22653;BME280;11493;43.344;26.226;2024-03-08T07:46:43;99709.47;;;6.49;100.00
22653;BME280;11493;43.344;26.226;2024-03-08T07:49:11;99727.41;;;6.71;100.00
22653;BME280;11493;43.344;26.226;2024-03-08T07:51:39;99728.81;;;6.68;100.00
22653;BME280;11493;43.344;26.226;2024-03-08T07:54:08;99726.13;;;6.58;100.00
22653;BME280;11493;43.344;26.226;2024-03-08T07:56:36;99733.47;;;6.68;100.00
22653;BME280;11493;43.344;26.226;2024-03-08T07:59:05;99736.97;;;6.73;100.00
22653;BME280;11493;43.344;26.226;2024-03-08T08:01:33;99715.44;;;6.67;100.00
22653;BME280;11493;43.344;26.226;2024-03-08T08:04:01;99728.53;;;6.70;100.00
22653;BME280;11493;43.344;26.226;2024-03-08T08:06:29;99736.44;;;6.76;100.00
22653;BME280;11493;43.344;26.226;2024-03-08T08:08:59;99718.44;;;6.65;100.00
22653;BME280;11493;43.344;26.226;2024-03-08T08:11:29;99740.25;;;6.75;100.00
22653;BME280;11493;43.344;26.226;2024-03-08T08:13:59;99740.78;;;6.77;100.00
22653;BME280;11493;43.344;26.226;2024-03-08T08:16:27;99740.00;;;6.72;100.00
22653;BME280;11493;43.344;26.226;2024-03-08T08:18:55;99739.00;;;6.52;100.00
22653;BME280;11493;43.344;26.226;2024-03-08T08:21:23;99742.84;;;6.46;100.00
22653;BME280;11493;43.344;26.226;2024-03-08T08:23:52;99745.84;;;6.45;100.00
22653;BME280;11493;43.344;26.226;2024-03-08T08:26:21;99727.00;;;6.33;100.00
22653;BME280;11493;43.344;26.226;2024-03-08T08:28:54;99750.50;;;6.44;100.00
22653;BME280;11493;43.344;26.226;2024-03-08T08:31:22;99744.50;;;6.37;100.00
22653;BME280;11493;43.344;26.226;2024-03-08T08:33:50;99747.22;;;6.42;100.00
22653;BME280;11493;43.344;26.226;2024-03-08T08:36:24;99746.16;;;6.28;100.00
22653;BME280;11493;43.344;26.226;2024-03-08T08:38:52;99751.06;;;6.31;100.00
22653;BME280;11493;43.344;26.226;2024-03-08T08:41:22;99745.34;;;6.28;100.00
22653;BME280;11493;43.344;26.226;2024-03-08T08:43:50;99754.09;;;6.24;100.00
22653;BME280;11493;43.344;26.226;2024-03-08T08:46:35;99751.34;;;6.30;100.00
22653;BME280;11493;43.344;26.226;2024-03-08T08:49:07;99752.44;;;6.29;100.00
22653;BME280;11493;43.344;26.226;2024-03-08T08:51:37;99756.25;;;6.33;100.00
22653;BME280;11493;43.344;26.226;2024-03-08T08:54:05;99733.88;;;6.10;100.00
22653;BME280;11493;43.344;26.226;2024-03-08T08:56:38;99739.88;;;6.17;100.00
22653;BME280;11493;43.344;26.226;2024-03-08T08:59:06;99757.38;;;6.21;100.00
22653;BME280;11493;43.344;26.226;2024-03-08T09:01:41;99755.19;;;6.23;100.00
22653;BME280;11493;43.344;26.226;2024-03-08T09:04:10;99755.44;;;6.32;100.00
22653;BME280;11493;43.344;26.226;2024-03-08T09:06:39;99747.22;;;6.37;100.00
22653;BME280;11493;43.344;26.226;2024-03-08T09:09:08;99751.59;;;6.43;100.00
22653;BME280;11493;43.344;26.226;2024-03-08T09:11:37;99751.56;;;6.48;100.00
22653;BME280;11493;43.344;26.226;2024-03-08T09:14:08;99747.75;;;6.54;100.00
22653;BME280;11493;43.344;26.226;2024-03-08T09:16:39;99751.03;;;6.51;100.00
22653;BME280;11493;43.344;26.226;2024-03-08T09:19:09;99748.31;;;6.41;100.00
22653;BME280;11493;43.344;26.226;2024-03-08T09:21:38;99759.25;;;6.31;100.00
22653;BME280;11493;43.344;26.226;2024-03-08T09:24:07;99755.72;;;6.15;100.00
22653;BME280;11493;43.344;26.226;2024-03-08T09:26:35;99752.19;;;5.94;100.00
22653;BME280;11493;43.344;26.226;2024-03-08T09:29:04;99762.56;;;5.67;100.00
22653;BME280;11493;43.344;26.226;2024-03-08T09:31:33;99758.75;;;5.73;100.00
22653;BME280;11493;43.344;26.226;2024-03-08T09:34:02;99766.13;;;5.78;100.00
22653;BME280;11493;43.344;26.226;2024-03-08T09:36:31;99763.66;;;5.86;100.00
22653;BME280;11493;43.344;26.226;2024-03-08T09:39:00;99768.59;;;5.94;100.00
22653;BME280;11493;43.344;26.226;2024-03-08T09:41:29;99766.94;;;5.83;100.00
22653;BME280;11493;43.344;26.226;2024-03-08T09:43:57;99771.59;;;5.78;100.00
22653;BME280;11493;43.344;26.226;2024-03-08T09:46:27;99763.66;;;5.66;100.00
22653;BME280;11493;43.344;26.226;2024-03-08T09:48:55;99769.66;;;5.68;100.00
22653;BME280;11493;43.344;26.226;2024-03-08T09:51:28;99765.84;;;5.74;100.00
22653;BME280;11493;43.344;26.226;2024-03-08T09:53:59;99769.41;;;5.80;100.00
22653;BME280;11493;43.344;26.226;2024-03-08T09:56:39;99769.66;;;5.78;100.00
22653;BME280;11493;43.344;26.226;2024-03-08T09:59:08;99756.03;;;5.73;100.00
22653;BME280;11493;43.344;26.226;2024-03-08T10:02:13;99779.50;;;5.84;100.00
22653;BME280;11493;43.344;26.226;2024-03-08T10:04:43;99772.94;;;5.80;100.00
22653;BME280;11493;43.344;26.226;2024-03-08T10:07:13;99768.84;;;5.78;100.00
22653;BME280;11493;43.344;26.226;2024-03-08T10:09:42;99775.69;;;5.70;100.00
22653;BME280;11493;43.344;26.226;2024-03-08T10:12:16;99769.41;;;5.70;100.00
22653;BME280;11493;43.344;26.226;2024-03-08T10:14:46;99765.56;;;5.71;100.00
22653;BME280;11493;43.344;26.226;2024-03-08T10:17:14;99782.75;;;5.61;100.00
22653;BME280;11493;43.344;26.226;2024-03-08T10:19:49;99773.19;;;5.53;100.00
22653;BME280;11493;43.344;26.226;2024-03-08T10:22:18;99777.56;;;5.65;100.00
22653;BME280;11493;43.344;26.226;2024-03-08T10:24:48;99777.84;;;5.68;100.00
22653;BME280;11493;43.344;26.226;2024-03-08T10:27:17;99769.66;;;5.58;100.00
22653;BME280;11493;43.344;26.226;2024-03-08T10:29:47;99768.03;;;5.62;100.00
22653;BME280;11493;43.344;26.226;2024-03-08T10:32:15;99773.22;;;5.74;100.00
22653;BME280;11493;43.344;26.226;2024-03-08T10:34:43;99762.56;;;5.82;100.00
22653;BME280;11493;43.344;26.226;2024-03-08T10:37:15;99774.59;;;5.81;100.00
22653;BME280;11493;43.344;26.226;2024-03-08T10:39:52;99775.44;;;5.92;100.00
22653;BME280;11493;43.344;26.226;2024-03-08T10:42:28;99772.97;;;5.96;100.00
22653;BME280;11493;43.344;26.226;2024-03-08T10:45:03;99772.44;;;5.93;100.00
22653;BME280;11493;43.344;26.226;2024-03-08T10:47:37;99761.47;;;5.88;100.00
22653;BME280;11493;43.344;26.226;2024-03-08T10:50:11;99770.50;;;5.99;100.00
22653;BME280;11493;43.344;26.226;2024-03-08T10:52:44;99768.59;;;6.05;100.00
22653;BME280;11493;43.344;26.226;2024-03-08T10:55:17;99769.13;;;6.02;100.00
22653;BME280;11493;43.344;26.226;2024-03-08T10:57:47;99774.03;;;6.10;100.00
22653;BME280;11493;43.344;26.226;2024-03-08T11:00:15;99771.03;;;6.16;100.00
22653;BME280;11493;43.344;26.226;2024-03-08T11:02:45;99760.94;;;6.17;100.00
22653;BME280;11493;43.344;26.226;2024-03-08T11:05:31;99768.56;;;6.25;100.00
22653;BME280;11493;43.344;26.226;2024-03-08T11:08:02;99758.47;;;6.20;100.00
22653;BME280;11493;43.344;26.226;2024-03-08T11:10:32;99760.66;;;6.18;100.00
22653;BME280;11493;43.344;26.226;2024-03-08T11:13:01;99765.00;;;6.30;100.00
22653;BME280;11493;43.344;26.226;2024-03-08T11:15:30;99752.94;;;6.46;100.00
22653;BME280;11493;43.344;26.226;2024-03-08T11:18:00;99728.63;;;6.39;100.00
22653;BME280;11493;43.344;26.226;2024-03-08T11:20:28;99756.75;;;6.55;100.00
22653;BME280;11493;43.344;26.226;2024-03-08T11:23:00;99749.63;;;6.64;100.00
22653;BME280;11493;43.344;26.226;2024-03-08T11:25:36;99761.34;;;6.70;100.00
22653;BME280;11493;43.344;26.226;2024-03-08T11:28:10;99749.25;;;6.86;100.00
22653;BME280;11493;43.344;26.226;2024-03-08T11:30:47;99751.94;;;6.96;100.00
22653;BME280;11493;43.344;26.226;2024-03-08T11:33:36;99749.44;;;7.05;100.00
22653;BME280;11493;43.344;26.226;2024-03-08T11:36:11;99751.53;;;7.23;100.00
22653;BME280;11493;43.344;26.226;2024-03-08T11:38:43;99748.94;;;7.42;100.00
22653;BME280;11493;43.344;26.226;2024-03-08T11:41:13;99749.53;;;7.39;100.00
22653;BME280;11493;43.344;26.226;2024-03-08T11:43:46;99745.91;;;7.43;100.00
22653;BME280;11493;43.344;26.226;2024-03-08T11:46:16;99746.91;;;7.57;100.00
22653;BME280;11493;43.344;26.226;2024-03-08T11:48:47;99752.59;;;7.66;100.00
22653;BME280;11493;43.344;26.226;2024-03-08T11:51:15;99744.31;;;7.76;100.00
22653;BME280;11493;43.344;26.226;2024-03-08T11:53:46;99755.78;;;7.78;100.00
22653;BME280;11493;43.344;26.226;2024-03-08T11:56:16;99743.72;;;7.79;100.00
22653;BME280;11493;43.344;26.226;2024-03-08T11:58:53;99740.53;;;8.01;100.00
22653;BME280;11493;43.344;26.226;2024-03-08T12:01:24;99741.78;;;8.14;100.00
22653;BME280;11493;43.344;26.226;2024-03-08T12:03:53;99744.69;;;8.22;100.00
22653;BME280;11493;43.344;26.226;2024-03-08T12:06:22;99745.56;;;8.18;100.00
22653;BME280;11493;43.344;26.226;2024-03-08T12:08:50;99742.78;;;8.23;100.00
22653;BME280;11493;43.344;26.226;2024-03-08T12:11:19;99747.03;;;8.10;100.00
22653;BME280;11493;43.344;26.226;2024-03-08T12:13:51;99734.44;;;8.09;100.00
22653;BME280;11493;43.344;26.226;2024-03-08T12:16:20;99747.44;;;8.51;97.07
22653;BME280;11493;43.344;26.226;2024-03-08T12:18:51;99725.41;;;8.62;96.71
22653;BME280;11493;43.344;26.226;2024-03-08T12:21:20;99740.34;;;8.93;97.21
22653;BME280;11493;43.344;26.226;2024-03-08T12:24:02;99735.41;;;9.14;96.70
22653;BME280;11493;43.344;26.226;2024-03-08T12:26:32;99741.91;;;9.42;96.09
22653;BME280;11493;43.344;26.226;2024-03-08T12:29:18;99747.31;;;9.47;92.05
22653;BME280;11493;43.344;26.226;2024-03-08T12:31:51;99738.94;;;9.57;91.08
22653;BME280;11493;43.344;26.226;2024-03-08T12:34:21;99736.28;;;9.66;90.97
22653;BME280;11493;43.344;26.226;2024-03-08T12:36:50;99742.59;;;9.66;92.34
22653;BME280;11493;43.344;26.226;2024-03-08T12:39:21;99732.63;;;9.57;92.75
22653;BME280;11493;43.344;26.226;2024-03-08T12:41:56;99736.25;;;9.52;91.44
22653;BME280;11493;43.344;26.226;2024-03-08T12:44:26;99716.72;;;9.53;92.20
22653;BME280;11493;43.344;26.226;2024-03-08T12:46:55;99737.91;;;9.67;90.37
22653;BME280;11493;43.344;26.226;2024-03-08T12:49:26;99717.91;;;9.47;89.04
22653;BME280;11493;43.344;26.226;2024-03-08T12:51:54;99734.53;;;9.56;90.40
22653;BME280;11493;43.344;26.226;2024-03-08T12:54:22;99726.94;;;9.67;91.26
22653;BME280;11493;43.344;26.226;2024-03-08T12:56:51;99728.69;;;9.63;90.85
22653;BME280;11493;43.344;26.226;2024-03-08T12:59:23;99732.66;;;9.70;89.45
22653;BME280;11493;43.344;26.226;2024-03-08T13:01:51;99737.72;;;9.63;88.63
22653;BME280;11493;43.344;26.226;2024-03-08T13:04:20;99712.94;;;9.31;89.00